Clovis, NM

5:00 PM MDT on August 18, 2017 (GMT -0600)
Clovis Municipal

Weather History for KCVN - March, 2014

Change the Weather History Date:

Friday, March 7, 2014

  Actual Average Record
Temperature  
Mean Temperature 55 °F -  
Max Temperature 73 °F 62 °F 83 °F (1972)
Min Temperature 37 °F 31 °F 6 °F (1947)
Degree Days  
Heating Degree Days 10    
Growing Degree Days 5 (Base 50)    
Moisture  
Dew Point 26 °F    
Average Humidity 35    
Maximum Humidity 70    
Minimum Humidity 13    
Precipitation  
Precipitation 0.00 in - - ()
Sea Level Pressure  
Sea Level Pressure 29.85 in    
Wind  
Wind Speed 15 mph (West)    
Max Wind Speed 28 mph    
Max Gust Speed 36 mph    
Visibility 10 miles    
Events Thunderstorm    
Averages and records for this station are not official NWS values.
T = Trace of Precipitation, MM = Missing Value Source: NWS Daily Summary

Daily Weather History Graph

Daily Weather History Graph

Search for Another Location

Airport or City:

Trip Planner

Search our weather history database for the weather conditions in past years. The results will help you decide how hot, cold, wet, or windy it might be!

Date:

Astronomy

Mar. 07, 2014 Rise Set
Actual Time 6:13 AM MST 5:53 PM MST
Civil Twilight 5:48 AM MST 6:18 PM MST
Nautical Twilight 5:19 AM MST 6:47 PM MST
Astronomical Twilight 4:50 AM MST 7:17 PM MST
Moon 10:23 AM MST (3/7) No Moon Set
Length of Visible Light 12h 30m
Length of Day
11h 40m
Waxing Crescent, 42% of the Moon is Illuminated
Mar 7
Waxing Crescent
Mar 8
First Quarter
Mar 16
Full
Mar 23
Last Quarter
Mar 30
New

Hourly Weather History & Observations

Time (MST) Temp. Windchill Dew Point Humidity Pressure Visibility Wind Dir Wind Speed Gust Speed Precip Events Conditions
12:15 AM 48.2 °F - 28.4 °F 46% 29.90 in 10.0 mi WSW 15.0 mph - N/A   Clear
12:35 AM 51.8 °F - 28.4 °F 41% 29.89 in 10.0 mi WSW 15.0 mph - N/A   Clear
12:55 AM 51.8 °F - 28.4 °F 41% 29.90 in 10.0 mi WSW 13.8 mph - N/A   Clear
1:15 AM 50.0 °F - 28.4 °F 43% 29.89 in 10.0 mi WSW 10.4 mph - N/A   Clear
1:35 AM 50.0 °F - 28.4 °F 43% 29.89 in 10.0 mi WSW 10.4 mph - N/A   Clear
1:55 AM 48.2 °F - 28.4 °F 46% 29.88 in 10.0 mi WSW 10.4 mph - N/A   Clear
2:15 AM 48.2 °F - 28.4 °F 46% 29.88 in 10.0 mi WSW 11.5 mph - N/A   Partly Cloudy
2:35 AM 50.0 °F - 28.4 °F 43% 29.87 in 10.0 mi WSW 12.7 mph - N/A   Mostly Cloudy
2:55 AM 51.8 °F - 28.4 °F 41% 29.86 in 10.0 mi WSW 12.7 mph - N/A   Scattered Clouds
3:15 AM 50.0 °F - 28.4 °F 43% 29.85 in 10.0 mi WSW 10.4 mph - N/A   Clear
3:35 AM 48.2 °F - 26.6 °F 43% 29.85 in 10.0 mi WSW 12.7 mph - N/A   Clear
3:55 AM 48.2 °F - 26.6 °F 43% 29.84 in 10.0 mi WSW 12.7 mph - N/A   Clear
4:15 AM 48.2 °F - 26.6 °F 43% 29.84 in 10.0 mi WSW 13.8 mph - N/A   Clear
4:35 AM 48.2 °F - 26.6 °F 43% 29.84 in 10.0 mi WSW 15.0 mph - N/A   Partly Cloudy
4:55 AM 46.4 °F 40.7 °F 26.6 °F 46% 29.84 in 10.0 mi West 12.7 mph - N/A   Partly Cloudy
5:15 AM 44.6 °F 39.7 °F 26.6 °F 49% 29.84 in 10.0 mi WSW 9.2 mph - N/A   Partly Cloudy
5:35 AM 42.8 °F 35.8 °F 26.6 °F 53% 29.84 in 10.0 mi WSW 13.8 mph - N/A   Clear
5:55 AM 44.6 °F 38.1 °F 26.6 °F 49% 29.85 in 10.0 mi West 13.8 mph - N/A   Clear
6:15 AM 46.4 °F 39.5 °F 26.6 °F 46% 29.85 in 10.0 mi WSW 17.3 mph - N/A   Clear
6:35 AM 48.2 °F - 24.8 °F 40% 29.85 in 10.0 mi WSW 12.7 mph - N/A   Clear
6:55 AM 48.2 °F - 26.6 °F 43% 29.85 in 10.0 mi WSW 16.1 mph - N/A   Clear
7:15 AM 50.0 °F - 26.6 °F 40% 29.86 in 10.0 mi West 15.0 mph - N/A   Clear
7:35 AM 51.8 °F - 26.6 °F 38% 29.87 in 10.0 mi WSW 12.7 mph - N/A   Clear
7:55 AM 53.6 °F - 26.6 °F 35% 29.86 in 10.0 mi WSW 13.8 mph - N/A   Clear
8:15 AM 55.4 °F - 28.4 °F 36% 29.87 in 10.0 mi WSW 11.5 mph - N/A   Clear
8:35 AM 57.2 °F - 28.4 °F 33% 29.87 in 10.0 mi West 17.3 mph - N/A   Clear
8:55 AM 60.8 °F - 28.4 °F 29% 29.86 in 10.0 mi West 18.4 mph 23.0 mph N/A   Clear
9:15 AM 62.6 °F - 28.4 °F 27% 29.86 in 10.0 mi West 19.6 mph 24.2 mph N/A   Clear
9:35 AM 64.4 °F - 26.6 °F 24% 29.85 in 10.0 mi West 18.4 mph - N/A   Clear
9:55 AM 66.2 °F - 26.6 °F 23% 29.85 in 10.0 mi West 18.4 mph 21.9 mph N/A   Clear
10:15 AM 68.0 °F - 24.8 °F 20% 29.85 in 10.0 mi West 23.0 mph 27.6 mph N/A   Clear
10:35 AM 69.8 °F - 24.8 °F 18% 29.85 in 10.0 mi West 16.1 mph 25.3 mph N/A   Clear
10:55 AM 71.6 °F - 23.0 °F 16% 29.85 in 10.0 mi West 20.7 mph 24.2 mph N/A   Clear
11:15 AM 71.6 °F - 21.2 °F 15% 29.84 in 10.0 mi West 19.6 mph 24.2 mph N/A   Clear
11:35 AM 71.6 °F - 21.2 °F 15% 29.83 in 10.0 mi West 16.1 mph 25.3 mph N/A   Clear
11:55 AM 73.4 °F - 19.4 °F 13% 29.81 in 10.0 mi West 20.7 mph 25.3 mph N/A   Clear
12:15 PM 73.4 °F - 21.2 °F 14% 29.81 in 10.0 mi West 16.1 mph 24.2 mph N/A   Clear
12:35 PM 73.4 °F - 21.2 °F 14% 29.80 in 10.0 mi West 18.4 mph 26.5 mph N/A   Clear
12:55 PM 71.6 °F - 21.2 °F 15% 29.79 in 10.0 mi West 17.3 mph 21.9 mph N/A   Clear
1:15 PM 71.6 °F - 19.4 °F 14% 29.79 in 10.0 mi WSW 17.3 mph - N/A   Clear
1:35 PM 71.6 °F - 19.4 °F 14% 29.78 in 10.0 mi West 18.4 mph - N/A   Clear
1:55 PM 71.6 °F - 19.4 °F 14% 29.78 in 10.0 mi West 17.3 mph 26.5 mph N/A   Clear
2:15 PM 71.6 °F - 19.4 °F 14% 29.78 in 10.0 mi West 18.4 mph 24.2 mph N/A   Clear
2:35 PM 71.6 °F - 19.4 °F 14% 29.78 in 10.0 mi West 20.7 mph 24.2 mph N/A   Clear
2:55 PM 69.8 °F - 19.4 °F 15% 29.78 in 10.0 mi West 16.1 mph 21.9 mph N/A   Clear
3:15 PM 69.8 °F - 19.4 °F 15% 29.78 in 10.0 mi West 18.4 mph 23.0 mph N/A   Clear
3:35 PM 69.8 °F - 17.6 °F 14% 29.79 in 10.0 mi West 16.1 mph - N/A   Clear
3:55 PM 68.0 °F - 17.6 °F 15% 29.79 in 10.0 mi West 13.8 mph - N/A   Clear
4:15 PM 66.2 °F - 19.4 °F 17% 29.78 in 10.0 mi West 10.4 mph - N/A   Clear
4:35 PM 64.4 °F - 21.2 °F 19% 29.79 in 10.0 mi West 5.8 mph - N/A   Clear
4:55 PM 68.0 °F - 21.2 °F 17% 29.79 in 10.0 mi West 6.9 mph - N/A   Clear
5:15 PM 68.0 °F - 19.4 °F 16% 29.79 in 10.0 mi West 5.8 mph - N/A   Clear
5:35 PM 64.4 °F - 19.4 °F 18% 29.80 in 10.0 mi West 3.5 mph - N/A   Clear
5:55 PM 60.8 °F - 17.6 °F 19% 29.80 in 10.0 mi West 6.9 mph - N/A   Clear
6:15 PM 60.8 °F - 19.4 °F 20% 29.80 in 10.0 mi West 5.8 mph - N/A   Clear
6:35 PM 59.0 °F - 23.0 °F 25% 29.81 in 10.0 mi West 8.1 mph - N/A   Clear
6:55 PM 57.2 °F - 24.8 °F 29% 29.81 in 10.0 mi NW 3.5 mph - N/A   Clear
7:15 PM 55.4 °F - 24.8 °F 31% 29.83 in 10.0 mi NE 10.4 mph 17.3 mph N/A   Mostly Cloudy
7:35 PM 57.2 °F - 30.2 °F 36% 29.86 in 10.0 mi ENE 11.5 mph 18.4 mph N/A   Overcast
7:55 PM 55.4 °F - 30.2 °F 38% 29.88 in 10.0 mi ENE 12.7 mph 18.4 mph N/A Thunderstorm Overcast
8:15 PM 55.4 °F - 30.2 °F 38% 29.90 in 10.0 mi North 18.4 mph 31.1 mph N/A   Overcast
8:35 PM 53.6 °F - 32.0 °F 44% 29.91 in 10.0 mi NNE 18.4 mph 24.2 mph N/A   Overcast
8:55 PM 51.8 °F - 35.6 °F 54% 29.92 in 10.0 mi North 12.7 mph 16.1 mph N/A   Overcast
9:15 PM 50.0 °F - 35.6 °F 58% 29.95 in 10.0 mi NNE 21.9 mph - N/A   Overcast
9:35 PM 48.2 °F - 35.6 °F 62% 29.93 in 10.0 mi NNE 26.5 mph 32.2 mph N/A   Overcast
9:55 PM 46.4 °F 37.5 °F 35.6 °F 66% 29.91 in 10.0 mi NE 27.6 mph 33.4 mph N/A   Overcast
10:15 PM 42.8 °F 32.9 °F 33.8 °F 70% 29.93 in 10.0 mi NNE 26.5 mph 34.5 mph N/A   Overcast
10:35 PM 41.0 °F 30.2 °F 30.2 °F 65% 29.98 in 10.0 mi NNE 27.6 mph 35.7 mph N/A   Mostly Cloudy
10:55 PM 39.2 °F 29.0 °F 30.2 °F 70% 29.99 in 10.0 mi NE 21.9 mph 32.2 mph N/A   Scattered Clouds
11:15 PM 37.4 °F 26.4 °F 28.4 °F 70% 30.00 in 10.0 mi NE 23.0 mph 33.4 mph N/A   Overcast
11:35 PM 37.4 °F 26.1 °F 28.4 °F 70% 30.02 in 10.0 mi NNE 24.2 mph 28.8 mph N/A   Overcast
11:55 PM 37.4 °F 25.6 °F 28.4 °F 70% 30.04 in 10.0 mi NNE 26.5 mph 31.1 mph N/A   Overcast